Aérodrome :
LOGIN :

S'inscrire | Disclaimer

   EN    FR    IT 

 










Légende :    VFR   VFR Marginal   IFR   IFR Intensif   IFR Très Intensif
Visi : 
Plafond : 
>= 8 km
>= 3000ft
5 à 8 km
1000 à 3000 ft
1500m à 5 km
500 à 1000 ft
800 à 1500m
200 à 500 ft
< 800m
< 200 ft
Symboles :   Orages  Brouillard  Fortes neiges  Fortes précipitations  Vent > 20 kt
SIGMETs :   Divers  Orages  Givrage  Turbulence  Onde Orograph.  Cendres Volcan.







- Altitude de l'aérodrome : 160 ft
- Code IATA : LRT
- Voir les cartes d'approche


LFRH - Lorient Lann Bihoue

DERNIER METAR :
  • 270600Z AUTO 18013KT 9999 SCT024 SCT033 BKN041 11/09 Q1006 TEMPO RA BECMG 19015G25KT

METARs EXPIRÉS :
  • 270530Z AUTO 17014KT 9999 FEW022/// BKN056/// OVC070/// ///CB 11/09 Q1006 TEMPO RA BKN015 BECMG 19015G25KT
  • 270500Z AUTO 18012KT 9999 FEW033/// SCT046/// BKN062/// ///CB 12/07 Q1007 TEMPO 18020G30KT BECMG BKN015 OVC020
  • 270430Z AUTO 19012KT 9999 FEW027/// BKN046/// BKN098/// ///TCU 12/08 Q1007 TEMPO 18020G30KT BECMG BKN015 OVC020
  • 270400Z AUTO 19012KT 9999 SCT025 SCT033 OVC046 11/08 Q1008 NOSIG
  • 270330Z AUTO 19010KT 9999 BKN026 BKN036 OVC044 11/08 Q1009 NOSIG

TAF TAF LFRH
Valide du 27 à 06h jusqu'au 28 à 06h UTC


270500Z 2706/2806 19015G25KT 9999 BKN025
TEMPO 2706/2708 5000 RA BKN015
FM270800 23020G40KT 9999 BKN020
BECMG 2717/2719 28015G25KT
BECMG 2800/2802 29005KT CAVOK
Pas de NOTAMs connus pour ce terrain.
1 SIGMET publié pour la FIR Brest (LFRR) :
 
Turbulence forte
LFRR SIGMET 1 VALID 270400/270800 LFPW
LFRR BREST FIR/UIR SEV TURB FCST WI N4600 W00800 - N4815 W00800 - N4815 W00615 - N4600 W00630 - N4600 W00800 SFC/FL060 MOV E 20KT NC=



MET'MAP, la Météo Aéronautique d'un coup d'oeil ! - Copyright ORBIFLY Décembre 2007 - Disclaimer

ORBIFLY MET'MAP TEAM :

Programmation & Développement : Alexandra Zaïnal
Conception & Développement : Baudouin d'Aumeries
Co-Programmation & Développement : Marc-Olivier Méhu
Soutien technique & logistique : Manuel Goepfert

Contact : metmap@orbifly.com




SOURCES & CREDITS :

   NOAA